PWSweather.com
Personal Weather Stations
Station Observations
MAGOO
Kiefer, OK 74041

Kiefer, OK 74041

Lat: 35.9417305, Lon: -96.03782654

Elevation: 699

Station Type: WMR100N

Latest ConditionsUpdated 6:50:00 PM CDT Saturday, May 28, 2016
Currently Today's Max Today's Min Today's Average
Temperature -5537.2°C 0.0°F-17.8°C 0.0°F-17.8°C 0.0°F-17.8°C
Dew Point -5537.2°C 0.0°F-17.8°C 0.0°F-17.8°C 0.0°F-17.8°C
Winds 2.0 mph SSW3.2 kmh SSW 6.8 mph S10.9 kmh S - 4.2 mph 6.8 kmh
Wind Gusts 3.1 mph5.0 kmh 13.6 mph21.9 kmh - -
Humidity - 0% 0% 0%
Pressure -338605.1 mb 0.00 in0.0 mb 0.00 in0.0 mb -
Hour Temp Dew Point Humidity Winds Wind Gusts Pressure Precip Precip Rate Daily Precip Total
06:50 PM -5537.2°C -5537.2°C - 2.0 mph SSW3.2 kmh SSW 3.1 mph5.0 kmh -338605.1 mb 0.00 in0.0 mm 0.00 in0.0 mm 0.00 in0.0 mm
06:45 PM -5537.2°C -5537.2°C - 2.9 mph S4.7 kmh S 5.8 mph9.3 kmh -338605.1 mb 0.00 in0.0 mm 0.00 in0.0 mm 0.00 in0.0 mm
06:40 PM -5537.2°C -5537.2°C - 2.2 mph SW3.5 kmh SW 3.8 mph6.1 kmh -338605.1 mb 0.00 in0.0 mm 0.00 in0.0 mm 0.00 in0.0 mm
06:35 PM -5537.2°C -5537.2°C - 1.9 mph SSE3.1 kmh SSE 3.8 mph6.1 kmh -338605.1 mb 0.00 in0.0 mm 0.00 in0.0 mm 0.00 in0.0 mm
06:30 PM -5537.2°C -5537.2°C - 1.8 mph SW2.9 kmh SW 2.9 mph4.7 kmh -338605.1 mb 0.00 in0.0 mm 0.00 in0.0 mm 0.00 in0.0 mm
06:25 PM -5537.2°C -5537.2°C - 2.4 mph SW3.9 kmh SW 2.9 mph4.7 kmh -338605.1 mb 0.00 in0.0 mm 0.00 in0.0 mm 0.00 in0.0 mm
06:20 PM -5537.2°C -5537.2°C - 2.7 mph SW4.3 kmh SW 3.6 mph5.8 kmh -338605.1 mb 0.00 in0.0 mm 0.00 in0.0 mm 0.00 in0.0 mm
06:15 PM -5537.2°C -5537.2°C - 2.0 mph SSW3.2 kmh SSW 3.8 mph6.1 kmh -338605.1 mb 0.00 in0.0 mm 0.00 in0.0 mm 0.00 in0.0 mm
06:10 PM -5537.2°C -5537.2°C - 2.1 mph SW3.4 kmh SW 2.9 mph4.7 kmh -338605.1 mb 0.00 in0.0 mm 0.00 in0.0 mm 0.00 in0.0 mm
06:05 PM -5537.2°C -5537.2°C - 3.9 mph SSW6.3 kmh SSW 5.8 mph9.3 kmh -338605.1 mb 0.00 in0.0 mm 0.00 in0.0 mm 0.00 in0.0 mm
06:00 PM -5537.2°C -5537.2°C - 2.2 mph S3.5 kmh S 7.2 mph11.6 kmh -338605.1 mb 0.00 in0.0 mm 0.00 in0.0 mm 0.00 in0.0 mm
05:55 PM -5537.2°C -5537.2°C - 2.1 mph S3.4 kmh S 3.6 mph5.8 kmh -338605.1 mb 0.00 in0.0 mm 0.00 in0.0 mm 0.00 in0.0 mm
05:50 PM -5537.2°C -5537.2°C - 2.3 mph S3.7 kmh S 3.6 mph5.8 kmh -338605.1 mb 0.00 in0.0 mm 0.00 in0.0 mm 0.00 in0.0 mm
05:45 PM -5537.2°C -5537.2°C - 3.5 mph S5.6 kmh S 5.6 mph9.0 kmh -338605.1 mb 0.00 in0.0 mm 0.00 in0.0 mm 0.00 in0.0 mm
05:40 PM -5537.2°C -5537.2°C - 2.7 mph SSW4.3 kmh SSW 3.8 mph6.1 kmh -338605.1 mb 0.00 in0.0 mm 0.00 in0.0 mm 0.00 in0.0 mm
05:35 PM -5537.2°C -5537.2°C - 3.1 mph SW5.0 kmh SW 4.7 mph7.6 kmh -338605.1 mb 0.00 in0.0 mm 0.00 in0.0 mm 0.00 in0.0 mm
05:30 PM -5537.2°C -5537.2°C - 3.6 mph SW5.8 kmh SW 5.6 mph9.0 kmh -338605.1 mb 0.00 in0.0 mm 0.00 in0.0 mm 0.00 in0.0 mm
05:25 PM -5537.2°C -5537.2°C - 4.0 mph SW6.4 kmh SW 6.3 mph10.1 kmh -338605.1 mb 0.00 in0.0 mm 0.00 in0.0 mm 0.00 in0.0 mm
05:20 PM -5537.2°C -5537.2°C - 3.5 mph SE5.6 kmh SE 5.6 mph9.0 kmh -338605.1 mb 0.00 in0.0 mm 0.00 in0.0 mm 0.00 in0.0 mm
05:15 PM -5537.2°C -5537.2°C - 3.4 mph ESE5.5 kmh ESE 6.0 mph9.7 kmh -338605.1 mb 0.00 in0.0 mm 0.00 in0.0 mm 0.00 in0.0 mm
05:10 PM -5537.2°C -5537.2°C - 3.2 mph SE5.1 kmh SE 7.6 mph12.2 kmh -338605.1 mb 0.00 in0.0 mm 0.00 in0.0 mm 0.00 in0.0 mm
05:05 PM -5537.2°C -5537.2°C - 2.3 mph S3.7 kmh S 4.0 mph6.4 kmh -338605.1 mb 0.00 in0.0 mm 0.00 in0.0 mm 0.00 in0.0 mm
05:00 PM -5537.2°C -5537.2°C - 2.7 mph S4.3 kmh S 5.8 mph9.3 kmh -338605.1 mb 0.00 in0.0 mm 0.00 in0.0 mm 0.00 in0.0 mm
04:55 PM -5537.2°C -5537.2°C - 3.7 mph S6.0 kmh S 7.2 mph11.6 kmh -338605.1 mb 0.00 in0.0 mm 0.00 in0.0 mm 0.00 in0.0 mm
04:50 PM -5537.2°C -5537.2°C - 2.2 mph S3.5 kmh S 3.4 mph5.5 kmh -338605.1 mb 0.00 in0.0 mm 0.00 in0.0 mm 0.00 in0.0 mm
04:45 PM -5537.2°C -5537.2°C - 3.6 mph S5.8 kmh S 6.0 mph9.7 kmh -338605.1 mb 0.00 in0.0 mm 0.00 in0.0 mm 0.00 in0.0 mm
04:40 PM -5537.2°C -5537.2°C - 5.0 mph S8.0 kmh S 8.5 mph13.7 kmh -338605.1 mb 0.00 in0.0 mm 0.00 in0.0 mm 0.00 in0.0 mm
04:35 PM -5537.2°C -5537.2°C - 4.5 mph SW7.2 kmh SW 7.2 mph11.6 kmh -338605.1 mb 0.00 in0.0 mm 0.00 in0.0 mm 0.00 in0.0 mm
04:30 PM -5537.2°C -5537.2°C - 4.3 mph S6.9 kmh S 6.9 mph11.1 kmh -338605.1 mb 0.00 in0.0 mm 0.00 in0.0 mm 0.00 in0.0 mm
04:25 PM -5537.2°C -5537.2°C - 3.3 mph S5.3 kmh S 9.2 mph14.8 kmh -338605.1 mb 0.00 in0.0 mm 0.00 in0.0 mm 0.00 in0.0 mm
04:20 PM -5537.2°C -5537.2°C - 4.3 mph S6.9 kmh S 6.5 mph10.5 kmh -338605.1 mb 0.00 in0.0 mm 0.00 in0.0 mm 0.00 in0.0 mm
04:15 PM -5537.2°C -5537.2°C - 3.3 mph S5.3 kmh S 8.5 mph13.7 kmh -338605.1 mb 0.00 in0.0 mm 0.00 in0.0 mm 0.00 in0.0 mm
04:10 PM -5537.2°C -5537.2°C - 4.1 mph SSW6.6 kmh SSW 7.6 mph12.2 kmh -338605.1 mb 0.00 in0.0 mm 0.00 in0.0 mm 0.00 in0.0 mm
04:05 PM -5537.2°C -5537.2°C - 4.5 mph SW7.2 kmh SW 7.8 mph12.6 kmh -338605.1 mb 0.00 in0.0 mm 0.00 in0.0 mm 0.00 in0.0 mm
04:00 PM -5537.2°C -5537.2°C - 3.6 mph S5.8 kmh S 6.3 mph10.1 kmh -338605.1 mb 0.00 in0.0 mm 0.00 in0.0 mm 0.00 in0.0 mm
03:55 PM -5537.2°C -5537.2°C - 5.1 mph SE8.2 kmh SE 8.1 mph13.0 kmh -338605.1 mb 0.00 in0.0 mm 0.00 in0.0 mm 0.00 in0.0 mm
03:50 PM -5537.2°C -5537.2°C - 4.8 mph S7.7 kmh S 8.1 mph13.0 kmh -338605.1 mb 0.00 in0.0 mm 0.00 in0.0 mm 0.00 in0.0 mm
03:45 PM -5537.2°C -5537.2°C - 4.6 mph SSE7.4 kmh SSE 7.2 mph11.6 kmh -338605.1 mb 0.00 in0.0 mm 0.00 in0.0 mm 0.00 in0.0 mm
03:40 PM -5537.2°C -5537.2°C - 5.6 mph SSW9.0 kmh SSW 8.1 mph13.0 kmh -338605.1 mb 0.00 in0.0 mm 0.00 in0.0 mm 0.00 in0.0 mm
03:35 PM -5537.2°C -5537.2°C - 4.6 mph SW7.4 kmh SW 6.7 mph10.8 kmh -338605.1 mb 0.00 in0.0 mm 0.00 in0.0 mm 0.00 in0.0 mm
03:30 PM -5537.2°C -5537.2°C - 5.2 mph SW8.4 kmh SW 7.2 mph11.6 kmh -338605.1 mb 0.00 in0.0 mm 0.00 in0.0 mm 0.00 in0.0 mm
03:25 PM -5537.2°C -5537.2°C - 4.9 mph S7.9 kmh S 8.5 mph13.7 kmh -338605.1 mb 0.00 in0.0 mm 0.00 in0.0 mm 0.00 in0.0 mm
03:20 PM -5537.2°C -5537.2°C - 3.2 mph SSE5.1 kmh SSE 5.6 mph9.0 kmh -338605.1 mb 0.00 in0.0 mm 0.00 in0.0 mm 0.00 in0.0 mm
03:15 PM -5537.2°C -5537.2°C - 4.8 mph S7.7 kmh S 7.8 mph12.6 kmh -338605.1 mb 0.00 in0.0 mm 0.00 in0.0 mm 0.00 in0.0 mm
03:10 PM -5537.2°C -5537.2°C - 4.6 mph SSW7.4 kmh SSW 6.5 mph10.5 kmh -338605.1 mb 0.00 in0.0 mm 0.00 in0.0 mm 0.00 in0.0 mm
03:05 PM -5537.2°C -5537.2°C - 4.4 mph S7.1 kmh S 7.8 mph12.6 kmh -338605.1 mb 0.00 in0.0 mm 0.00 in0.0 mm 0.00 in0.0 mm
03:00 PM -5537.2°C -5537.2°C - 4.1 mph SE6.6 kmh SE 7.8 mph12.6 kmh -338605.1 mb 0.00 in0.0 mm 0.00 in0.0 mm 0.00 in0.0 mm
02:55 PM -5537.2°C -5537.2°C - 4.8 mph SSE7.7 kmh SSE 7.4 mph11.9 kmh -338605.1 mb 0.00 in0.0 mm 0.00 in0.0 mm 0.00 in0.0 mm
02:50 PM -5537.2°C -5537.2°C - 5.6 mph SSW9.0 kmh SSW 10.5 mph16.9 kmh -338605.1 mb 0.00 in0.0 mm 0.00 in0.0 mm 0.00 in0.0 mm
02:45 PM -5537.2°C -5537.2°C - 4.9 mph S7.9 kmh S 10.3 mph16.6 kmh -338605.1 mb 0.00 in0.0 mm 0.00 in0.0 mm 0.00 in0.0 mm
02:40 PM -5537.2°C -5537.2°C - 4.5 mph S7.2 kmh S 9.8 mph15.8 kmh -338605.1 mb 0.00 in0.0 mm 0.00 in0.0 mm 0.00 in0.0 mm
02:35 PM -5537.2°C -5537.2°C - 5.3 mph SW8.5 kmh SW 8.7 mph14.0 kmh -338605.1 mb 0.00 in0.0 mm 0.00 in0.0 mm 0.00 in0.0 mm
02:30 PM -5537.2°C -5537.2°C - 4.3 mph SW6.9 kmh SW 6.3 mph10.1 kmh -338605.1 mb 0.00 in0.0 mm 0.00 in0.0 mm 0.00 in0.0 mm
02:25 PM -5537.2°C -5537.2°C - 4.8 mph S7.7 kmh S 9.8 mph15.8 kmh -338605.1 mb 0.00 in0.0 mm 0.00 in0.0 mm 0.00 in0.0 mm
02:20 PM -5537.2°C -5537.2°C - 3.5 mph SE5.6 kmh SE 7.4 mph11.9 kmh -338605.1 mb 0.00 in0.0 mm 0.00 in0.0 mm 0.00 in0.0 mm
02:15 PM -5537.2°C -5537.2°C - 3.6 mph S5.8 kmh S 7.6 mph12.2 kmh -338605.1 mb 0.00 in0.0 mm 0.00 in0.0 mm 0.00 in0.0 mm
02:10 PM -5537.2°C -5537.2°C - 3.8 mph SW6.1 kmh SW 7.4 mph11.9 kmh -338605.1 mb 0.00 in0.0 mm 0.00 in0.0 mm 0.00 in0.0 mm
02:05 PM -5537.2°C -5537.2°C - 5.1 mph S8.2 kmh S 12.8 mph20.6 kmh -338605.1 mb 0.00 in0.0 mm 0.00 in0.0 mm 0.00 in0.0 mm
02:00 PM -5537.2°C -5537.2°C - 3.4 mph SW5.5 kmh SW 6.3 mph10.1 kmh -338605.1 mb 0.00 in0.0 mm 0.00 in0.0 mm 0.00 in0.0 mm
01:55 PM -5537.2°C -5537.2°C - 4.5 mph SE7.2 kmh SE 7.6 mph12.2 kmh -338605.1 mb 0.00 in0.0 mm 0.00 in0.0 mm 0.00 in0.0 mm
01:50 PM -5537.2°C -5537.2°C - 3.9 mph S6.3 kmh S 6.7 mph10.8 kmh -338605.1 mb 0.00 in0.0 mm 0.00 in0.0 mm 0.00 in0.0 mm
01:45 PM -5537.2°C -5537.2°C - 3.4 mph SW5.5 kmh SW 7.4 mph11.9 kmh -338605.1 mb 0.00 in0.0 mm 0.00 in0.0 mm 0.00 in0.0 mm
01:40 PM -5537.2°C -5537.2°C - 4.2 mph S6.8 kmh S 9.4 mph15.1 kmh -338605.1 mb 0.00 in0.0 mm 0.00 in0.0 mm 0.00 in0.0 mm
01:35 PM -5537.2°C -5537.2°C - 4.2 mph SE6.8 kmh SE 7.4 mph11.9 kmh -338605.1 mb 0.00 in0.0 mm 0.00 in0.0 mm 0.00 in0.0 mm
01:30 PM -5537.2°C -5537.2°C - 4.5 mph SSE7.2 kmh SSE 6.5 mph10.5 kmh -338605.1 mb 0.00 in0.0 mm 0.00 in0.0 mm 0.00 in0.0 mm
01:25 PM -5537.2°C -5537.2°C - 5.2 mph S8.4 kmh S 11.2 mph18.0 kmh -338605.1 mb 0.00 in0.0 mm 0.00 in0.0 mm 0.00 in0.0 mm
01:20 PM -5537.2°C -5537.2°C - 5.2 mph S8.4 kmh S 8.5 mph13.7 kmh -338605.1 mb 0.00 in0.0 mm 0.00 in0.0 mm 0.00 in0.0 mm
01:15 PM -5537.2°C -5537.2°C - 5.6 mph SE9.0 kmh SE 8.7 mph14.0 kmh -338605.1 mb 0.00 in0.0 mm 0.00 in0.0 mm 0.00 in0.0 mm
01:10 PM -5537.2°C -5537.2°C - 4.9 mph S7.9 kmh S 11.4 mph18.3 kmh -338605.1 mb 0.00 in0.0 mm 0.00 in0.0 mm 0.00 in0.0 mm
01:05 PM -5537.2°C -5537.2°C - 5.6 mph S9.0 kmh S 12.5 mph20.1 kmh -338605.1 mb 0.00 in0.0 mm 0.00 in0.0 mm 0.00 in0.0 mm
01:00 PM -5537.2°C -5537.2°C - 5.3 mph S8.5 kmh S 13.6 mph21.9 kmh -338605.1 mb 0.00 in0.0 mm 0.00 in0.0 mm 0.00 in0.0 mm
12:55 PM -5537.2°C -5537.2°C - 5.4 mph S8.7 kmh S 12.1 mph19.5 kmh -338605.1 mb 0.00 in0.0 mm 0.00 in0.0 mm 0.00 in0.0 mm
12:50 PM -5537.2°C -5537.2°C - 5.7 mph SW9.2 kmh SW 8.5 mph13.7 kmh -338605.1 mb 0.00 in0.0 mm 0.00 in0.0 mm 0.00 in0.0 mm
12:45 PM -5537.2°C -5537.2°C - 5.6 mph S9.0 kmh S 10.1 mph16.3 kmh -338605.1 mb 0.00 in0.0 mm 0.00 in0.0 mm 0.00 in0.0 mm
12:40 PM -5537.2°C -5537.2°C - 5.8 mph S9.3 kmh S 10.5 mph16.9 kmh -338605.1 mb 0.00 in0.0 mm 0.00 in0.0 mm 0.00 in0.0 mm
12:35 PM -5537.2°C -5537.2°C - 5.8 mph SW9.3 kmh SW 9.6 mph15.4 kmh -338605.1 mb 0.00 in0.0 mm 0.00 in0.0 mm 0.00 in0.0 mm
12:30 PM -5537.2°C -5537.2°C - 6.2 mph SW10.0 kmh SW 10.1 mph16.3 kmh -338605.1 mb 0.00 in0.0 mm 0.00 in0.0 mm 0.00 in0.0 mm
12:25 PM -5537.2°C -5537.2°C - 6.2 mph S10.0 kmh S 8.7 mph14.0 kmh -338605.1 mb 0.00 in0.0 mm 0.00 in0.0 mm 0.00 in0.0 mm
12:20 PM -5537.2°C -5537.2°C - 5.1 mph SSW8.2 kmh SSW 8.7 mph14.0 kmh -338605.1 mb 0.00 in0.0 mm 0.00 in0.0 mm 0.00 in0.0 mm
12:15 PM -5537.2°C -5537.2°C - 6.2 mph SSW10.0 kmh SSW 9.6 mph15.4 kmh -338605.1 mb 0.00 in0.0 mm 0.00 in0.0 mm 0.00 in0.0 mm
12:10 PM -5537.2°C -5537.2°C - 5.7 mph S9.2 kmh S 9.6 mph15.4 kmh -338605.1 mb 0.00 in0.0 mm 0.00 in0.0 mm 0.00 in0.0 mm
12:05 PM -5537.2°C -5537.2°C - 5.0 mph S8.0 kmh S 8.5 mph13.7 kmh -338605.1 mb 0.00 in0.0 mm 0.00 in0.0 mm 0.00 in0.0 mm
12:00 PM -5537.2°C -5537.2°C - 5.3 mph SW8.5 kmh SW 7.8 mph12.6 kmh -338605.1 mb 0.00 in0.0 mm 0.00 in0.0 mm 0.00 in0.0 mm
11:55 AM -5537.2°C -5537.2°C - 4.9 mph SSW7.9 kmh SSW 8.7 mph14.0 kmh -338605.1 mb 0.00 in0.0 mm 0.00 in0.0 mm 0.00 in0.0 mm
11:50 AM -5537.2°C -5537.2°C - 5.2 mph SW8.4 kmh SW 8.9 mph14.3 kmh -338605.1 mb 0.00 in0.0 mm 0.00 in0.0 mm 0.00 in0.0 mm
11:45 AM -5537.2°C -5537.2°C - 6.0 mph SSW9.7 kmh SSW 10.5 mph16.9 kmh -338605.1 mb 0.00 in0.0 mm 0.00 in0.0 mm 0.00 in0.0 mm
11:40 AM -5537.2°C -5537.2°C - 5.6 mph SW9.0 kmh SW 7.8 mph12.6 kmh -338605.1 mb 0.00 in0.0 mm 0.00 in0.0 mm 0.00 in0.0 mm
11:35 AM -5537.2°C -5537.2°C - 6.6 mph S10.6 kmh S 9.6 mph15.4 kmh -338605.1 mb 0.00 in0.0 mm 0.00 in0.0 mm 0.00 in0.0 mm
11:30 AM -5537.2°C -5537.2°C - 4.7 mph SSW7.6 kmh SSW 7.4 mph11.9 kmh -338605.1 mb 0.00 in0.0 mm 0.00 in0.0 mm 0.00 in0.0 mm
11:25 AM -5537.2°C -5537.2°C - 6.3 mph SW10.1 kmh SW 8.1 mph13.0 kmh -338605.1 mb 0.00 in0.0 mm 0.00 in0.0 mm 0.00 in0.0 mm
11:20 AM -5537.2°C -5537.2°C - 5.3 mph SW8.5 kmh SW 9.4 mph15.1 kmh -338605.1 mb 0.00 in0.0 mm 0.00 in0.0 mm 0.00 in0.0 mm
11:15 AM -5537.2°C -5537.2°C - 5.0 mph S8.0 kmh S 11.0 mph17.7 kmh -338605.1 mb 0.00 in0.0 mm 0.00 in0.0 mm 0.00 in0.0 mm
11:10 AM -5537.2°C -5537.2°C - 4.4 mph S7.1 kmh S 8.1 mph13.0 kmh -338605.1 mb 0.00 in0.0 mm 0.00 in0.0 mm 0.00 in0.0 mm
11:05 AM -5537.2°C -5537.2°C - 4.5 mph SSW7.2 kmh SSW 8.5 mph13.7 kmh -338605.1 mb 0.00 in0.0 mm 0.00 in0.0 mm 0.00 in0.0 mm
11:00 AM -5537.2°C -5537.2°C - 6.3 mph SSW10.1 kmh SSW 9.8 mph15.8 kmh -338605.1 mb 0.00 in0.0 mm 0.00 in0.0 mm 0.00 in0.0 mm
10:55 AM -5537.2°C -5537.2°C - 5.2 mph SSW8.4 kmh SSW 11.2 mph18.0 kmh -338605.1 mb 0.00 in0.0 mm 0.00 in0.0 mm 0.00 in0.0 mm
10:50 AM -5537.2°C -5537.2°C - 6.8 mph S10.9 kmh S 12.1 mph19.5 kmh -338605.1 mb 0.00 in0.0 mm 0.00 in0.0 mm 0.00 in0.0 mm
10:45 AM -5537.2°C -5537.2°C - 6.8 mph S10.9 kmh S 12.8 mph20.6 kmh -338605.1 mb 0.00 in0.0 mm 0.00 in0.0 mm 0.00 in0.0 mm
10:40 AM -5537.2°C -5537.2°C - 4.2 mph SSW6.8 kmh SSW 8.5 mph13.7 kmh -338605.1 mb 0.00 in0.0 mm 0.00 in0.0 mm 0.00 in0.0 mm
10:35 AM -5537.2°C -5537.2°C - 5.1 mph SSW8.2 kmh SSW 7.8 mph12.6 kmh -338605.1 mb 0.00 in0.0 mm 0.00 in0.0 mm 0.00 in0.0 mm
10:30 AM -5537.2°C -5537.2°C - 4.4 mph SSW7.1 kmh SSW 7.8 mph12.6 kmh -338605.1 mb 0.00 in0.0 mm 0.00 in0.0 mm 0.00 in0.0 mm
10:25 AM -5537.2°C -5537.2°C - 6.1 mph S9.8 kmh S 10.3 mph16.6 kmh -338605.1 mb 0.00 in0.0 mm 0.00 in0.0 mm 0.00 in0.0 mm
10:20 AM -5537.2°C -5537.2°C - 5.6 mph SW9.0 kmh SW 10.1 mph16.3 kmh -338605.1 mb 0.00 in0.0 mm 0.00 in0.0 mm 0.00 in0.0 mm
10:15 AM -5537.2°C -5537.2°C - 5.8 mph SW9.3 kmh SW 9.4 mph15.1 kmh -338605.1 mb 0.00 in0.0 mm 0.00 in0.0 mm 0.00 in0.0 mm
10:10 AM -5537.2°C -5537.2°C - 6.7 mph SW10.8 kmh SW 9.8 mph15.8 kmh -338605.1 mb 0.00 in0.0 mm 0.00 in0.0 mm 0.00 in0.0 mm
10:05 AM -5537.2°C -5537.2°C - 4.1 mph SW6.6 kmh SW 6.5 mph10.5 kmh -338605.1 mb 0.00 in0.0 mm 0.00 in0.0 mm 0.00 in0.0 mm
10:00 AM -5537.2°C -5537.2°C - 4.4 mph SW7.1 kmh SW 7.4 mph11.9 kmh -338605.1 mb 0.00 in0.0 mm 0.00 in0.0 mm 0.00 in0.0 mm
09:55 AM -5537.2°C -5537.2°C - 5.5 mph SW8.9 kmh SW 10.3 mph16.6 kmh -338605.1 mb 0.00 in0.0 mm 0.00 in0.0 mm 0.00 in0.0 mm
09:50 AM -5537.2°C -5537.2°C - 5.4 mph SW8.7 kmh SW 8.5 mph13.7 kmh -338605.1 mb 0.00 in0.0 mm 0.00 in0.0 mm 0.00 in0.0 mm
09:45 AM -5537.2°C -5537.2°C - 5.2 mph SW8.4 kmh SW 7.4 mph11.9 kmh -338605.1 mb 0.00 in0.0 mm 0.00 in0.0 mm 0.00 in0.0 mm
09:40 AM -5537.2°C -5537.2°C - 5.7 mph SSW9.2 kmh SSW 7.6 mph12.2 kmh -338605.1 mb 0.00 in0.0 mm 0.00 in0.0 mm 0.00 in0.0 mm
09:35 AM -5537.2°C -5537.2°C - 4.0 mph SSW6.4 kmh SSW 7.8 mph12.6 kmh -338605.1 mb 0.00 in0.0 mm 0.00 in0.0 mm 0.00 in0.0 mm
09:30 AM -5537.2°C -5537.2°C - 5.3 mph SW8.5 kmh SW 7.8 mph12.6 kmh -338605.1 mb 0.00 in0.0 mm 0.00 in0.0 mm 0.00 in0.0 mm
09:25 AM -5537.2°C -5537.2°C - 6.3 mph SW10.1 kmh SW 10.3 mph16.6 kmh -338605.1 mb 0.00 in0.0 mm 0.00 in0.0 mm 0.00 in0.0 mm
09:20 AM -5537.2°C -5537.2°C - 5.7 mph SW9.2 kmh SW 12.1 mph19.5 kmh -338605.1 mb 0.00 in0.0 mm 0.00 in0.0 mm 0.00 in0.0 mm
09:15 AM -5537.2°C -5537.2°C - 5.7 mph SW9.2 kmh SW 8.7 mph14.0 kmh -338605.1 mb 0.00 in0.0 mm 0.00 in0.0 mm 0.00 in0.0 mm
09:10 AM -5537.2°C -5537.2°C - 6.2 mph SW10.0 kmh SW 10.3 mph16.6 kmh -338605.1 mb 0.00 in0.0 mm 0.00 in0.0 mm 0.00 in0.0 mm
09:05 AM -5537.2°C -5537.2°C - 6.7 mph SW10.8 kmh SW 10.1 mph16.3 kmh -338605.1 mb 0.00 in0.0 mm 0.00 in0.0 mm 0.00 in0.0 mm
09:00 AM -5537.2°C -5537.2°C - 4.7 mph SSW7.6 kmh SSW 7.8 mph12.6 kmh -338605.1 mb 0.00 in0.0 mm 0.00 in0.0 mm 0.00 in0.0 mm
08:55 AM -5537.2°C -5537.2°C - 4.9 mph SSW7.9 kmh SSW 6.5 mph10.5 kmh -338605.1 mb 0.00 in0.0 mm 0.00 in0.0 mm 0.00 in0.0 mm
08:50 AM -5537.2°C -5537.2°C - 4.7 mph SW7.6 kmh SW 7.6 mph12.2 kmh -338605.1 mb 0.00 in0.0 mm 0.00 in0.0 mm 0.00 in0.0 mm
08:45 AM -5537.2°C -5537.2°C - 4.5 mph SSW7.2 kmh SSW 8.1 mph13.0 kmh -338605.1 mb 0.00 in0.0 mm 0.00 in0.0 mm 0.00 in0.0 mm
08:40 AM -5537.2°C -5537.2°C - 4.8 mph SSW7.7 kmh SSW 8.7 mph14.0 kmh -338605.1 mb 0.00 in0.0 mm 0.00 in0.0 mm 0.00 in0.0 mm
08:35 AM -5537.2°C -5537.2°C - 5.5 mph SSW8.9 kmh SSW 8.5 mph13.7 kmh -338605.1 mb 0.00 in0.0 mm 0.00 in0.0 mm 0.00 in0.0 mm
08:30 AM -5537.2°C -5537.2°C - 3.9 mph SSW6.3 kmh SSW 6.0 mph9.7 kmh -338605.1 mb 0.00 in0.0 mm 0.00 in0.0 mm 0.00 in0.0 mm
08:25 AM -5537.2°C -5537.2°C - 4.7 mph SSW7.6 kmh SSW 10.1 mph16.3 kmh -338605.1 mb 0.00 in0.0 mm 0.00 in0.0 mm 0.00 in0.0 mm
08:20 AM -5537.2°C -5537.2°C - 4.5 mph S7.2 kmh S 8.1 mph13.0 kmh -338605.1 mb 0.00 in0.0 mm 0.00 in0.0 mm 0.00 in0.0 mm
08:15 AM -5537.2°C -5537.2°C - 3.3 mph SSW5.3 kmh SSW 7.4 mph11.9 kmh -338605.1 mb 0.00 in0.0 mm 0.00 in0.0 mm 0.00 in0.0 mm
08:10 AM -5537.2°C -5537.2°C - 4.9 mph SSW7.9 kmh SSW 8.7 mph14.0 kmh -338605.1 mb 0.00 in0.0 mm 0.00 in0.0 mm 0.00 in0.0 mm
08:05 AM -5537.2°C -5537.2°C - 4.9 mph S7.9 kmh S 10.1 mph16.3 kmh -338605.1 mb 0.00 in0.0 mm 0.00 in0.0 mm 0.00 in0.0 mm
08:00 AM -5537.2°C -5537.2°C - 3.6 mph S5.8 kmh S 8.1 mph13.0 kmh -338605.1 mb 0.00 in0.0 mm 0.00 in0.0 mm 0.00 in0.0 mm
07:55 AM -5537.2°C -5537.2°C - 4.3 mph SSW6.9 kmh SSW 7.2 mph11.6 kmh -338605.1 mb 0.00 in0.0 mm 0.00 in0.0 mm 0.00 in0.0 mm
07:50 AM -5537.2°C -5537.2°C - 4.4 mph S7.1 kmh S 7.4 mph11.9 kmh -338605.1 mb 0.00 in0.0 mm 0.00 in0.0 mm 0.00 in0.0 mm
07:45 AM -5537.2°C -5537.2°C - 4.4 mph S7.1 kmh S 9.8 mph15.8 kmh -338605.1 mb 0.00 in0.0 mm 0.00 in0.0 mm 0.00 in0.0 mm
07:40 AM -5537.2°C -5537.2°C - 4.9 mph S7.9 kmh S 8.7 mph14.0 kmh -338605.1 mb 0.00 in0.0 mm 0.00 in0.0 mm 0.00 in0.0 mm
07:35 AM -5537.2°C -5537.2°C - 5.2 mph S8.4 kmh S 8.7 mph14.0 kmh -338605.1 mb 0.00 in0.0 mm 0.00 in0.0 mm 0.00 in0.0 mm
07:30 AM -5537.2°C -5537.2°C - 5.6 mph S9.0 kmh S 9.2 mph14.8 kmh -338605.1 mb 0.00 in0.0 mm 0.00 in0.0 mm 0.00 in0.0 mm
07:25 AM -5537.2°C -5537.2°C - 6.8 mph S10.9 kmh S 12.5 mph20.1 kmh -338605.1 mb 0.00 in0.0 mm 0.00 in0.0 mm 0.00 in0.0 mm
07:20 AM -5537.2°C -5537.2°C - 4.3 mph S6.9 kmh S 6.5 mph10.5 kmh -338605.1 mb 0.00 in0.0 mm 0.00 in0.0 mm 0.00 in0.0 mm
07:15 AM -5537.2°C -5537.2°C - 4.1 mph S6.6 kmh S 10.1 mph16.3 kmh -338605.1 mb 0.00 in0.0 mm 0.00 in0.0 mm 0.00 in0.0 mm
07:10 AM -5537.2°C -5537.2°C - 5.2 mph S8.4 kmh S 10.5 mph16.9 kmh -338605.1 mb 0.00 in0.0 mm 0.00 in0.0 mm 0.00 in0.0 mm
07:05 AM -5537.2°C -5537.2°C - 5.2 mph S8.4 kmh S 8.1 mph13.0 kmh -338605.1 mb 0.00 in0.0 mm 0.00 in0.0 mm 0.00 in0.0 mm
07:00 AM -5537.2°C -5537.2°C - 5.5 mph S8.9 kmh S 10.3 mph16.6 kmh -338605.1 mb 0.00 in0.0 mm 0.00 in0.0 mm 0.00 in0.0 mm
06:55 AM -5537.2°C -5537.2°C - 6.1 mph S9.8 kmh S 10.7 mph17.2 kmh -338605.1 mb 0.00 in0.0 mm 0.00 in0.0 mm 0.00 in0.0 mm
06:50 AM -5537.2°C -5537.2°C - 5.6 mph S9.0 kmh S 9.8 mph15.8 kmh -338605.1 mb 0.00 in0.0 mm 0.00 in0.0 mm 0.00 in0.0 mm
06:45 AM -5537.2°C -5537.2°C - 5.2 mph S8.4 kmh S 11.0 mph17.7 kmh -338605.1 mb 0.00 in0.0 mm 0.00 in0.0 mm 0.00 in0.0 mm
06:40 AM -5537.2°C -5537.2°C - 4.3 mph S6.9 kmh S 6.3 mph10.1 kmh -338605.1 mb 0.00 in0.0 mm 0.00 in0.0 mm 0.00 in0.0 mm
06:35 AM -5537.2°C -5537.2°C - 5.7 mph S9.2 kmh S 10.7 mph17.2 kmh -338605.1 mb 0.00 in0.0 mm 0.00 in0.0 mm 0.00 in0.0 mm
06:30 AM -5537.2°C -5537.2°C - 4.7 mph S7.6 kmh S 8.7 mph14.0 kmh -338605.1 mb 0.00 in0.0 mm 0.00 in0.0 mm 0.00 in0.0 mm
06:25 AM -5537.2°C -5537.2°C - 3.7 mph S6.0 kmh S 7.8 mph12.6 kmh -338605.1 mb 0.00 in0.0 mm 0.00 in0.0 mm 0.00 in0.0 mm
06:20 AM -5537.2°C -5537.2°C - 5.0 mph S8.0 kmh S 8.5 mph13.7 kmh -338605.1 mb 0.00 in0.0 mm 0.00 in0.0 mm 0.00 in0.0 mm
06:15 AM -5537.2°C -5537.2°C - 5.2 mph S8.4 kmh S 9.6 mph15.4 kmh -338605.1 mb 0.00 in0.0 mm 0.00 in0.0 mm 0.00 in0.0 mm
06:10 AM -5537.2°C -5537.2°C - 5.6 mph S9.0 kmh S 12.1 mph19.5 kmh -338605.1 mb 0.00 in0.0 mm 0.00 in0.0 mm 0.00 in0.0 mm
06:05 AM -5537.2°C -5537.2°C - 4.6 mph S7.4 kmh S 7.6 mph12.2 kmh -338605.1 mb 0.00 in0.0 mm 0.00 in0.0 mm 0.00 in0.0 mm
06:00 AM -5537.2°C -5537.2°C - 5.0 mph S8.0 kmh S 8.1 mph13.0 kmh -338605.1 mb 0.00 in0.0 mm 0.00 in0.0 mm 0.00 in0.0 mm
05:55 AM -5537.2°C -5537.2°C - 5.9 mph S9.5 kmh S 7.4 mph11.9 kmh -338605.1 mb 0.00 in0.0 mm 0.00 in0.0 mm 0.00 in0.0 mm
05:50 AM -5537.2°C -5537.2°C - 5.0 mph S8.0 kmh S 8.5 mph13.7 kmh -338605.1 mb 0.00 in0.0 mm 0.00 in0.0 mm 0.00 in0.0 mm
05:45 AM -5537.2°C -5537.2°C - 4.0 mph S6.4 kmh S 8.5 mph13.7 kmh -338605.1 mb 0.00 in0.0 mm 0.00 in0.0 mm 0.00 in0.0 mm
05:40 AM -5537.2°C -5537.2°C - 4.8 mph S7.7 kmh S 10.1 mph16.3 kmh -338605.1 mb 0.00 in0.0 mm 0.00 in0.0 mm 0.00 in0.0 mm
05:35 AM -5537.2°C -5537.2°C - 5.5 mph S8.9 kmh S 10.3 mph16.6 kmh -338605.1 mb 0.00 in0.0 mm 0.00 in0.0 mm 0.00 in0.0 mm
05:30 AM -5537.2°C -5537.2°C - 4.9 mph S7.9 kmh S 7.8 mph12.6 kmh -338605.1 mb 0.00 in0.0 mm 0.00 in0.0 mm 0.00 in0.0 mm
05:25 AM -5537.2°C -5537.2°C - 4.9 mph S7.9 kmh S 12.8 mph20.6 kmh -338605.1 mb 0.00 in0.0 mm 0.00 in0.0 mm 0.00 in0.0 mm
05:20 AM -5537.2°C -5537.2°C - 4.1 mph S6.6 kmh S 10.5 mph16.9 kmh -338605.1 mb 0.00 in0.0 mm 0.00 in0.0 mm 0.00 in0.0 mm
05:15 AM -5537.2°C -5537.2°C - 5.3 mph S8.5 kmh S 7.8 mph12.6 kmh -338605.1 mb 0.00 in0.0 mm 0.00 in0.0 mm 0.00 in0.0 mm
05:10 AM -5537.2°C -5537.2°C - 4.3 mph S6.9 kmh S 7.2 mph11.6 kmh -338605.1 mb 0.00 in0.0 mm 0.00 in0.0 mm 0.00 in0.0 mm
05:05 AM -5537.2°C -5537.2°C - 3.7 mph S6.0 kmh S 6.7 mph10.8 kmh -338605.1 mb 0.00 in0.0 mm 0.00 in0.0 mm 0.00 in0.0 mm
05:00 AM -5537.2°C -5537.2°C - 3.2 mph SSW5.1 kmh SSW 7.6 mph12.2 kmh -338605.1 mb 0.00 in0.0 mm 0.00 in0.0 mm 0.00 in0.0 mm
04:55 AM -5537.2°C -5537.2°C - 3.6 mph S5.8 kmh S 7.8 mph12.6 kmh -338605.1 mb 0.00 in0.0 mm 0.00 in0.0 mm 0.00 in0.0 mm
04:50 AM -5537.2°C -5537.2°C - 3.0 mph S4.8 kmh S 5.6 mph9.0 kmh -338605.1 mb 0.00 in0.0 mm 0.00 in0.0 mm 0.00 in0.0 mm
04:45 AM -5537.2°C -5537.2°C - 3.8 mph S6.1 kmh S 6.0 mph9.7 kmh -338605.1 mb 0.00 in0.0 mm 0.00 in0.0 mm 0.00 in0.0 mm
04:40 AM -5537.2°C -5537.2°C - 3.7 mph S6.0 kmh S 7.8 mph12.6 kmh -338605.1 mb 0.00 in0.0 mm 0.00 in0.0 mm 0.00 in0.0 mm
04:35 AM -5537.2°C -5537.2°C - 4.0 mph S6.4 kmh S 7.6 mph12.2 kmh -338605.1 mb 0.00 in0.0 mm 0.00 in0.0 mm 0.00 in0.0 mm
04:30 AM -5537.2°C -5537.2°C - 4.6 mph S7.4 kmh S 9.2 mph14.8 kmh -338605.1 mb 0.00 in0.0 mm 0.00 in0.0 mm 0.00 in0.0 mm
04:25 AM -5537.2°C -5537.2°C - 4.6 mph SSW7.4 kmh SSW 8.5 mph13.7 kmh -338605.1 mb 0.00 in0.0 mm 0.00 in0.0 mm 0.00 in0.0 mm
04:20 AM -5537.2°C -5537.2°C - 4.2 mph S6.8 kmh S 8.1 mph13.0 kmh -338605.1 mb 0.00 in0.0 mm 0.00 in0.0 mm 0.00 in0.0 mm
04:15 AM -5537.2°C -5537.2°C - 4.5 mph S7.2 kmh S 7.6 mph12.2 kmh -338605.1 mb 0.00 in0.0 mm 0.00 in0.0 mm 0.00 in0.0 mm
04:10 AM -5537.2°C -5537.2°C - 3.5 mph S5.6 kmh S 7.8 mph12.6 kmh -338605.1 mb 0.00 in0.0 mm 0.00 in0.0 mm 0.00 in0.0 mm
04:05 AM -5537.2°C -5537.2°C - 4.5 mph SSE7.2 kmh SSE 9.8 mph15.8 kmh -338605.1 mb 0.00 in0.0 mm 0.00 in0.0 mm 0.00 in0.0 mm
04:00 AM -5537.2°C -5537.2°C - 4.2 mph SSE6.8 kmh SSE 10.1 mph16.3 kmh -338605.1 mb 0.00 in0.0 mm 0.00 in0.0 mm 0.00 in0.0 mm
03:55 AM -5537.2°C -5537.2°C - 3.4 mph S5.5 kmh S 7.2 mph11.6 kmh -338605.1 mb 0.00 in0.0 mm 0.00 in0.0 mm 0.00 in0.0 mm
03:50 AM -5537.2°C -5537.2°C - 4.1 mph SSE6.6 kmh SSE 7.6 mph12.2 kmh -338605.1 mb 0.00 in0.0 mm 0.00 in0.0 mm 0.00 in0.0 mm
03:45 AM -5537.2°C -5537.2°C - 3.4 mph S5.5 kmh S 7.4 mph11.9 kmh -338605.1 mb 0.00 in0.0 mm 0.00 in0.0 mm 0.00 in0.0 mm
03:35 AM -5537.2°C -5537.2°C - 2.0 mph S3.2 kmh S 3.8 mph6.1 kmh -338605.1 mb 0.00 in0.0 mm 0.00 in0.0 mm 0.00 in0.0 mm
03:30 AM -5537.2°C -5537.2°C - 2.1 mph S3.4 kmh S 3.8 mph6.1 kmh -338605.1 mb 0.00 in0.0 mm 0.00 in0.0 mm 0.00 in0.0 mm
03:25 AM -5537.2°C -5537.2°C - 0.3 mph SSW0.5 kmh SSW 4.0 mph6.4 kmh -338605.1 mb 0.00 in0.0 mm 0.00 in0.0 mm 0.00 in0.0 mm
03:20 AM -5537.2°C -5537.2°C - 2.3 mph SSE3.7 kmh SSE 4.5 mph7.2 kmh -338605.1 mb 0.00 in0.0 mm 0.00 in0.0 mm 0.00 in0.0 mm
03:15 AM -5537.2°C -5537.2°C - 2.4 mph S3.9 kmh S 4.3 mph6.9 kmh -338605.1 mb 0.00 in0.0 mm 0.00 in0.0 mm 0.00 in0.0 mm
03:10 AM -5537.2°C -5537.2°C - 2.6 mph S4.2 kmh S 5.6 mph9.0 kmh -338605.1 mb 0.00 in0.0 mm 0.00 in0.0 mm 0.00 in0.0 mm
03:05 AM -5537.2°C -5537.2°C - 2.6 mph S4.2 kmh S 4.7 mph7.6 kmh -338605.1 mb 0.00 in0.0 mm 0.00 in0.0 mm 0.00 in0.0 mm
03:00 AM -5537.2°C -5537.2°C - 3.6 mph S5.8 kmh S 7.8 mph12.6 kmh -338605.1 mb 0.00 in0.0 mm 0.00 in0.0 mm 0.00 in0.0 mm
02:55 AM -5537.2°C -5537.2°C - 3.9 mph S6.3 kmh S 6.5 mph10.5 kmh -338605.1 mb 0.00 in0.0 mm 0.00 in0.0 mm 0.00 in0.0 mm
02:50 AM -5537.2°C -5537.2°C - 4.0 mph S6.4 kmh S 8.7 mph14.0 kmh -338605.1 mb 0.00 in0.0 mm 0.00 in0.0 mm 0.00 in0.0 mm
02:45 AM -5537.2°C -5537.2°C - 3.8 mph S6.1 kmh S 8.1 mph13.0 kmh -338605.1 mb 0.00 in0.0 mm 0.00 in0.0 mm 0.00 in0.0 mm
02:40 AM -5537.2°C -5537.2°C - 3.8 mph S6.1 kmh S 7.4 mph11.9 kmh -338605.1 mb 0.00 in0.0 mm 0.00 in0.0 mm 0.00 in0.0 mm
02:35 AM -5537.2°C -5537.2°C - 2.6 mph SSE4.2 kmh SSE 5.4 mph8.7 kmh -338605.1 mb 0.00 in0.0 mm 0.00 in0.0 mm 0.00 in0.0 mm
02:30 AM -5537.2°C -5537.2°C - 2.0 mph SE3.2 kmh SE 4.0 mph6.4 kmh -338605.1 mb 0.00 in0.0 mm 0.00 in0.0 mm 0.00 in0.0 mm
02:25 AM -5537.2°C -5537.2°C - 0.9 mph S1.4 kmh S 3.4 mph5.5 kmh -338605.1 mb 0.00 in0.0 mm 0.00 in0.0 mm 0.00 in0.0 mm
02:20 AM -5537.2°C -5537.2°C - 0.3 mph SW0.5 kmh SW 1.6 mph2.6 kmh -338605.1 mb 0.00 in0.0 mm 0.00 in0.0 mm 0.00 in0.0 mm
02:15 AM -5537.2°C -5537.2°C - 0.7 mph SE1.1 kmh SE 3.1 mph5.0 kmh -338605.1 mb 0.00 in0.0 mm 0.00 in0.0 mm 0.00 in0.0 mm
02:10 AM -5537.2°C -5537.2°C - 2.0 mph SSE3.2 kmh SSE 3.8 mph6.1 kmh -338605.1 mb 0.00 in0.0 mm 0.00 in0.0 mm 0.00 in0.0 mm
02:05 AM -5537.2°C -5537.2°C - 3.0 mph SSE4.8 kmh SSE 5.8 mph9.3 kmh -338605.1 mb 0.00 in0.0 mm 0.00 in0.0 mm 0.00 in0.0 mm
02:00 AM -5537.2°C -5537.2°C - 2.2 mph S3.5 kmh S 3.8 mph6.1 kmh -338605.1 mb 0.00 in0.0 mm 0.00 in0.0 mm 0.00 in0.0 mm
01:55 AM -5537.2°C -5537.2°C - 2.8 mph SSE4.5 kmh SSE 5.6 mph9.0 kmh -338605.1 mb 0.00 in0.0 mm 0.00 in0.0 mm 0.00 in0.0 mm
01:50 AM -5537.2°C -5537.2°C - 2.5 mph SE4.0 kmh SE 4.3 mph6.9 kmh -338605.1 mb 0.00 in0.0 mm 0.00 in0.0 mm 0.00 in0.0 mm
01:45 AM -5537.2°C -5537.2°C - 2.8 mph SE4.5 kmh SE 5.8 mph9.3 kmh -338605.1 mb 0.00 in0.0 mm 0.00 in0.0 mm 0.00 in0.0 mm
01:40 AM -5537.2°C -5537.2°C - 1.6 mph SE2.6 kmh SE 3.6 mph5.8 kmh -338605.1 mb 0.00 in0.0 mm 0.00 in0.0 mm 0.00 in0.0 mm
01:35 AM -5537.2°C -5537.2°C - 1.7 mph S2.7 kmh S 3.8 mph6.1 kmh -338605.1 mb 0.00 in0.0 mm 0.00 in0.0 mm 0.00 in0.0 mm
01:30 AM -5537.2°C -5537.2°C - 2.4 mph ESE3.9 kmh ESE 3.6 mph5.8 kmh -338605.1 mb 0.00 in0.0 mm 0.00 in0.0 mm 0.00 in0.0 mm
01:25 AM -5537.2°C -5537.2°C - 3.0 mph E4.8 kmh E 4.3 mph6.9 kmh -338605.1 mb 0.00 in0.0 mm 0.00 in0.0 mm 0.00 in0.0 mm
01:20 AM -5537.2°C -5537.2°C - 2.8 mph ESE4.5 kmh ESE 4.7 mph7.6 kmh -338605.1 mb 0.00 in0.0 mm 0.00 in0.0 mm 0.00 in0.0 mm
01:15 AM -5537.2°C -5537.2°C - 2.3 mph ESE3.7 kmh ESE 4.3 mph6.9 kmh -338605.1 mb 0.00 in0.0 mm 0.00 in0.0 mm 0.00 in0.0 mm
01:10 AM -5537.2°C -5537.2°C - 2.3 mph ESE3.7 kmh ESE 3.4 mph5.5 kmh -338605.1 mb 0.00 in0.0 mm 0.00 in0.0 mm 0.00 in0.0 mm
01:05 AM -5537.2°C -5537.2°C - 2.5 mph ESE4.0 kmh ESE 4.3 mph6.9 kmh -338605.1 mb 0.00 in0.0 mm 0.00 in0.0 mm 0.00 in0.0 mm
01:00 AM -5537.2°C -5537.2°C - 2.6 mph ESE4.2 kmh ESE 4.0 mph6.4 kmh -338605.1 mb 0.00 in0.0 mm 0.00 in0.0 mm 0.00 in0.0 mm
12:55 AM -5537.2°C -5537.2°C - 2.5 mph SE4.0 kmh SE 3.8 mph6.1 kmh -338605.1 mb 0.00 in0.0 mm 0.00 in0.0 mm 0.00 in0.0 mm
12:50 AM -5537.2°C -5537.2°C - 2.4 mph SE3.9 kmh SE 3.4 mph5.5 kmh -338605.1 mb 0.00 in0.0 mm 0.00 in0.0 mm 0.00 in0.0 mm
12:45 AM -5537.2°C -5537.2°C - 1.4 mph SSE2.3 kmh SSE 4.0 mph6.4 kmh -338605.1 mb 0.00 in0.0 mm 0.00 in0.0 mm 0.00 in0.0 mm
12:40 AM -5537.2°C -5537.2°C - 1.5 mph ESE2.4 kmh ESE 2.7 mph4.3 kmh -338605.1 mb 0.00 in0.0 mm 0.00 in0.0 mm 0.00 in0.0 mm
12:35 AM -5537.2°C -5537.2°C - 2.2 mph SSE3.5 kmh SSE 4.0 mph6.4 kmh -338605.1 mb 0.00 in0.0 mm 0.00 in0.0 mm 0.00 in0.0 mm
12:30 AM -5537.2°C -5537.2°C - 3.3 mph SE5.3 kmh SE 4.9 mph7.9 kmh -338605.1 mb 0.00 in0.0 mm 0.00 in0.0 mm 0.00 in0.0 mm
12:25 AM -5537.2°C -5537.2°C - 3.4 mph SE5.5 kmh SE 6.5 mph10.5 kmh -338605.1 mb 0.00 in0.0 mm 0.00 in0.0 mm 0.00 in0.0 mm
12:20 AM -5537.2°C -5537.2°C - 3.8 mph SSE6.1 kmh SSE 6.5 mph10.5 kmh -338605.1 mb 0.00 in0.0 mm 0.00 in0.0 mm 0.00 in0.0 mm
12:15 AM -5537.2°C -5537.2°C - 5.5 mph S8.9 kmh S 8.5 mph13.7 kmh -338605.1 mb 0.00 in0.0 mm 0.00 in0.0 mm 0.00 in0.0 mm
12:10 AM -5537.2°C -5537.2°C - 5.3 mph S8.5 kmh S 9.6 mph15.4 kmh -338605.1 mb 0.00 in0.0 mm 0.00 in0.0 mm 0.00 in0.0 mm
12:05 AM -5537.2°C -5537.2°C - 4.4 mph S7.1 kmh S 10.1 mph16.3 kmh -338605.1 mb 0.00 in0.0 mm 0.00 in0.0 mm 0.00 in0.0 mm
12:00 AM -5537.2°C -5537.2°C - 3.5 mph S5.6 kmh S 5.8 mph9.3 kmh -338605.1 mb 0.00 in0.0 mm 0.00 in0.0 mm 0.00 in0.0 mm